createdAt,value
2019-05-17T00:04:26.990Z,94.15
2019-05-17T00:10:31.754Z,93.96
2019-05-17T00:16:37.473Z,94.29
2019-05-17T00:22:42.235Z,94.46
2019-05-17T00:28:47.034Z,94.71
2019-05-17T00:34:51.607Z,94.77
2019-05-17T00:40:56.547Z,94.79
2019-05-17T00:47:01.254Z,94.37
2019-05-17T00:53:07.359Z,94.35
2019-05-17T00:59:12.156Z,94.60
2019-05-17T01:05:17.267Z,95.08
2019-05-17T01:11:22.002Z,94.92
2019-05-17T01:17:27.130Z,95.00
2019-05-17T01:23:32.329Z,94.86
2019-05-17T01:29:36.876Z,95.00
2019-05-17T01:35:41.459Z,94.86
2019-05-17T01:41:46.846Z,93.84
2019-05-17T01:47:51.638Z,94.65
2019-05-17T01:53:57.354Z,94.83
2019-05-17T02:00:02.035Z,93.86
2019-05-17T02:06:07.454Z,94.31
2019-05-17T02:12:12.330Z,94.36
2019-05-17T02:18:17.383Z,94.13
2019-05-17T02:24:22.381Z,94.32
2019-05-17T02:30:27.340Z,93.89
2019-05-17T02:36:33.226Z,94.41
2019-05-17T02:42:38.080Z,95.24
2019-05-17T02:48:42.981Z,95.28
2019-05-17T02:54:47.738Z,95.20
2019-05-17T03:00:53.184Z,94.80
2019-05-17T03:06:58.102Z,94.86
2019-05-17T03:13:04.137Z,94.79
2019-05-17T03:19:08.870Z,95.21
2019-05-17T03:25:14.579Z,95.05
2019-05-17T03:31:25.673Z,94.97
2019-05-17T03:37:32.564Z,95.35
2019-05-17T03:43:35.112Z,95.12
2019-05-17T03:49:39.747Z,94.75
2019-05-17T03:55:44.648Z,94.50
2019-05-17T04:01:52.513Z,94.72
2019-05-17T04:07:55.779Z,94.10
2019-05-17T04:14:03.066Z,94.67
2019-05-17T04:20:09.634Z,94.53
2019-05-17T04:26:14.238Z,93.92
2019-05-17T04:32:18.827Z,94.06
2019-05-17T04:38:23.943Z,93.17
2019-05-17T04:44:28.661Z,93.17
2019-05-17T04:50:34.355Z,91.63
2019-05-17T04:56:38.899Z,90.78
2019-05-17T05:02:44.455Z,90.16
2019-05-17T05:08:49.102Z,90.71
2019-05-17T05:14:53.651Z,91.50
2019-05-17T05:20:58.280Z,92.15
2019-05-17T05:27:02.827Z,91.72
2019-05-17T05:33:07.377Z,90.56
2019-05-17T05:39:11.919Z,89.09
2019-05-17T05:45:17.271Z,89.42
2019-05-17T05:51:21.903Z,89.89
2019-05-17T05:57:26.434Z,89.96
2019-05-17T06:03:32.076Z,89.18
2019-05-17T06:09:36.819Z,88.92
2019-05-17T06:15:42.881Z,88.22
2019-05-17T06:21:47.661Z,86.84
2019-05-17T06:27:52.222Z,86.67
2019-05-17T06:33:56.857Z,85.36
2019-05-17T06:40:02.372Z,85.06
2019-05-17T06:46:07.215Z,83.84
2019-05-17T06:52:11.850Z,82.30
2019-05-17T06:58:16.420Z,82.86
2019-05-17T07:04:21.029Z,82.06
2019-05-17T07:10:25.721Z,80.45
2019-05-17T07:16:30.288Z,83.07
2019-05-17T07:22:34.993Z,83.08
2019-05-17T07:28:40.435Z,82.91
2019-05-17T07:34:45.245Z,81.57
2019-05-17T07:40:50.257Z,80.46
2019-05-17T07:46:55.543Z,77.51
2019-05-17T07:53:00.634Z,74.59
2019-05-17T07:59:05.512Z,72.96
2019-05-17T08:05:10.893Z,72.69
2019-05-17T08:11:15.489Z,69.40
2019-05-17T08:17:20.091Z,66.51
2019-05-17T08:23:24.713Z,65.28
2019-05-17T08:29:29.796Z,66.52
2019-05-17T08:35:34.515Z,64.71
2019-05-17T08:41:40.431Z,63.45
2019-05-17T08:47:45.275Z,64.70
2019-05-17T08:53:49.949Z,67.01
2019-05-17T08:59:54.831Z,65.57
2019-05-17T09:06:02.126Z,62.82
2019-05-17T09:12:06.081Z,63.43
2019-05-17T09:18:10.643Z,62.04
2019-05-17T09:24:15.266Z,61.56
2019-05-17T09:30:21.620Z,63.40
2019-05-17T09:36:33.367Z,62.19
2019-05-17T09:42:40.775Z,58.28
2019-05-17T09:48:46.929Z,58.71
2019-05-17T09:54:51.112Z,58.74
2019-05-17T10:00:55.965Z,56.59
2019-05-17T10:07:00.584Z,54.61
2019-05-17T10:13:05.341Z,49.59
2019-05-17T10:19:10.057Z,49.47
2019-05-17T10:25:15.547Z,51.20
2019-05-17T10:31:20.834Z,51.71
2019-05-17T10:37:25.984Z,53.51
2019-05-17T10:43:30.634Z,53.27
2019-05-17T10:49:36.538Z,55.17
2019-05-17T10:55:41.390Z,54.76
2019-05-17T11:01:46.106Z,55.76
2019-05-17T11:07:51.354Z,53.45
2019-05-17T11:13:58.993Z,55.19
2019-05-17T11:20:06.481Z,56.78
2019-05-17T11:26:11.362Z,57.82
2019-05-17T11:32:17.496Z,55.99
2019-05-17T11:38:22.444Z,55.30
2019-05-17T11:44:27.181Z,55.73
2019-05-17T11:50:32.457Z,57.99
2019-05-17T11:56:37.514Z,58.29
2019-05-17T12:02:43.803Z,54.84
2019-05-17T12:08:49.029Z,57.37
2019-05-17T12:14:53.968Z,57.36
2019-05-17T12:21:00.554Z,57.77
2019-05-17T12:27:07.622Z,57.07
2019-05-17T12:33:15.948Z,57.37
2019-05-17T12:39:20.765Z,54.16
2019-05-17T12:45:26.206Z,53.67
2019-05-17T12:51:33.031Z,55.52
2019-05-17T12:57:37.807Z,55.74
2019-05-17T13:03:42.542Z,55.80
2019-05-17T13:09:48.837Z,55.94
2019-05-17T13:15:53.519Z,56.15
2019-05-17T13:21:58.308Z,55.25
2019-05-17T13:28:03.761Z,56.28
2019-05-17T13:34:08.464Z,57.23
2019-05-17T13:40:15.298Z,56.54
2019-05-17T13:46:32.615Z,55.43
2019-05-17T13:52:28.476Z,56.64
2019-05-17T13:58:33.218Z,55.20
2019-05-17T14:04:38.513Z,54.97
2019-05-17T14:10:43.593Z,55.68
2019-05-17T14:16:49.213Z,56.25
2019-05-17T14:22:53.859Z,53.93
2019-05-17T14:28:58.519Z,55.64
2019-05-17T14:35:04.811Z,53.86
2019-05-17T14:41:09.854Z,52.28
2019-05-17T14:47:14.646Z,53.63
2019-05-17T14:53:19.299Z,52.90
2019-05-17T14:59:25.607Z,53.58
2019-05-17T15:05:31.189Z,55.13
2019-05-17T15:11:40.491Z,54.65
2019-05-17T15:17:45.194Z,54.52
2019-05-17T15:23:49.922Z,54.96
2019-05-17T15:29:54.583Z,50.64
2019-05-17T15:35:59.264Z,54.32
2019-05-17T15:42:03.974Z,51.59
2019-05-17T15:48:08.819Z,51.55
2019-05-17T15:54:16.626Z,51.85
2019-05-17T16:00:23.369Z,53.15
2019-05-17T16:06:28.037Z,52.81
2019-05-17T16:12:34.015Z,51.71
2019-05-17T16:18:43.119Z,53.65
2019-05-17T16:24:48.258Z,52.36
2019-05-17T16:30:53.016Z,54.26
2019-05-17T16:36:57.654Z,54.28
2019-05-17T16:43:17.048Z,54.61
2019-05-17T16:49:11.986Z,53.98
2019-05-17T16:55:20.330Z,55.92
2019-05-17T17:01:25.308Z,55.96
2019-05-17T17:07:30.096Z,56.40
2019-05-17T17:13:34.821Z,54.02
2019-05-17T17:19:39.622Z,50.91
2019-05-17T17:25:48.443Z,47.09
2019-05-17T17:31:53.229Z,48.89
2019-05-17T17:37:57.984Z,52.75
2019-05-17T17:44:06.762Z,44.98
2019-05-17T17:50:12.024Z,48.55
2019-05-17T17:56:16.931Z,53.07
2019-05-17T18:02:21.635Z,55.66
2019-05-17T18:08:26.382Z,58.44
2019-05-17T18:14:31.198Z,61.75
2019-05-17T18:20:35.971Z,63.01
2019-05-17T18:26:40.779Z,65.45
2019-05-17T18:32:46.252Z,66.79
2019-05-17T18:38:54.622Z,69.17
2019-05-17T18:44:59.279Z,70.43
2019-05-17T18:51:04.087Z,71.41
2019-05-17T18:57:10.345Z,72.88
2019-05-17T19:03:15.198Z,74.07
2019-05-17T19:09:19.837Z,74.64
2019-05-17T19:15:24.861Z,75.17
2019-05-17T19:21:29.446Z,76.19
2019-05-17T19:27:34.128Z,76.99
2019-05-17T19:33:38.679Z,77.39
2019-05-17T19:39:43.311Z,77.68
2019-05-17T19:45:47.941Z,78.21
2019-05-17T19:51:52.567Z,78.43
2019-05-17T19:57:57.137Z,79.26
2019-05-17T20:04:04.269Z,79.71
2019-05-17T20:10:11.632Z,79.87
2019-05-17T20:16:16.203Z,80.12
2019-05-17T20:22:20.795Z,79.74
2019-05-17T20:28:25.345Z,79.83
2019-05-17T20:34:29.990Z,79.18
2019-05-17T20:40:34.619Z,79.18
2019-05-17T20:46:39.188Z,79.72
2019-05-17T20:52:43.882Z,79.82
2019-05-17T20:58:48.505Z,79.03
2019-05-17T21:04:53.058Z,78.32
2019-05-17T21:10:57.710Z,78.27
2019-05-17T21:17:02.262Z,78.95
2019-05-17T21:23:06.833Z,79.54
2019-05-17T21:29:11.400Z,80.11
2019-05-17T21:35:17.672Z,80.64
2019-05-17T21:41:22.241Z,80.73
2019-05-17T21:47:26.927Z,80.04
2019-05-17T21:53:31.513Z,78.44
2019-05-17T21:59:36.087Z,78.00
2019-05-17T22:05:40.719Z,78.11
2019-05-17T22:11:46.937Z,78.84
2019-05-17T22:17:51.481Z,79.48
2019-05-17T22:23:56.179Z,80.23
2019-05-17T22:30:00.725Z,81.02
2019-05-17T22:36:05.387Z,81.93
2019-05-17T22:42:11.512Z,81.86
2019-05-17T22:48:16.059Z,82.08
2019-05-17T22:54:20.622Z,82.37
2019-05-17T23:00:25.266Z,82.28
2019-05-17T23:06:29.902Z,83.47
2019-05-17T23:12:34.466Z,83.71
2019-05-17T23:18:39.124Z,85.70
2019-05-17T23:24:43.761Z,85.93
2019-05-17T23:30:48.289Z,86.24
2019-05-17T23:36:52.934Z,87.00
2019-05-17T23:42:57.497Z,88.26
2019-05-17T23:49:02.208Z,88.17
2019-05-17T23:55:08.186Z,88.94
